createdAt,value
2022-12-03T00:02:13.958Z,4.35
2022-12-03T00:05:20.473Z,9.98
2022-12-03T00:08:26.333Z,5.92
2022-12-03T00:11:25.560Z,6.47
2022-12-03T00:14:31.844Z,8.15
2022-12-03T00:17:38.223Z,9.58
2022-12-03T00:20:44.752Z,7.40
2022-12-03T00:23:50.624Z,7.78
2022-12-03T00:26:55.706Z,5.87
2022-12-03T00:30:01.524Z,6.22
2022-12-03T00:33:06.793Z,5.62
2022-12-03T00:36:12.142Z,8.85
2022-12-03T00:39:18.012Z,6.55
2022-12-03T00:42:17.193Z,6.85
2022-12-03T00:45:23.497Z,11.63
2022-12-03T00:48:28.354Z,8.20
2022-12-03T00:51:35.142Z,7.72
2022-12-03T00:54:40.624Z,7.65
2022-12-03T00:57:46.322Z,10.13
2022-12-03T01:00:52.497Z,9.85
2022-12-03T01:03:57.851Z,13.40
2022-12-03T01:07:02.394Z,8.43
2022-12-03T01:10:08.179Z,9.23
2022-12-03T01:13:14.056Z,11.00
2022-12-03T01:16:20.609Z,13.10
2022-12-03T01:19:26.836Z,10.90
2022-12-03T01:22:32.196Z,11.65
2022-12-03T01:25:37.625Z,10.85
2022-12-03T01:28:43.396Z,8.93
2022-12-03T01:32:07.080Z,8.75
2022-12-03T01:35:13.029Z,14.35
2022-12-03T01:38:18.521Z,10.13
2022-12-03T01:41:25.107Z,7.45
2022-12-03T01:44:28.393Z,8.28
2022-12-03T01:47:34.919Z,7.75
2022-12-03T01:50:47.719Z,11.15
2022-12-03T01:53:53.951Z,10.95
2022-12-03T01:56:52.845Z,8.63
2022-12-03T01:59:54.140Z,8.63
2022-12-03T02:03:00.806Z,8.85
2022-12-03T02:06:06.684Z,9.40
2022-12-03T02:09:07.401Z,8.23
2022-12-03T02:12:12.448Z,6.20
2022-12-03T02:15:17.954Z,10.45
2022-12-03T02:18:24.410Z,8.20
2022-12-03T02:21:46.829Z,10.23
2022-12-03T02:25:16.563Z,9.50
2022-12-03T02:28:23.642Z,10.35
2022-12-03T02:31:30.109Z,10.43
2022-12-03T02:34:58.133Z,9.45
2022-12-03T02:38:07.334Z,11.45
2022-12-03T02:41:17.136Z,8.93
2022-12-03T02:44:21.928Z,11.85
2022-12-03T02:47:26.661Z,11.33
2022-12-03T02:50:37.159Z,11.63
2022-12-03T02:53:51.158Z,10.55
2022-12-03T02:56:56.698Z,10.43
2022-12-03T03:00:02.387Z,13.08
2022-12-03T03:03:08.110Z,11.53
2022-12-03T03:06:13.043Z,12.20
2022-12-03T03:09:18.200Z,9.53
2022-12-03T03:12:23.390Z,10.75
2022-12-03T03:15:28.238Z,12.68
2022-12-03T03:18:26.256Z,11.57
2022-12-03T03:21:18.829Z,11.53
2022-12-03T03:24:24.322Z,11.35
2022-12-03T03:27:30.039Z,13.13
2022-12-03T03:30:35.281Z,10.78
2022-12-03T03:33:41.279Z,11.83
2022-12-03T03:36:46.396Z,12.75
2022-12-03T03:39:53.051Z,12.88
2022-12-03T03:42:59.320Z,11.93
2022-12-03T03:46:05.274Z,9.78
2022-12-03T03:49:11.076Z,10.18
2022-12-03T03:52:18.639Z,12.82
2022-12-03T03:55:25.418Z,13.75
2022-12-03T03:58:31.062Z,12.37
2022-12-03T04:01:37.483Z,9.48
2022-12-03T04:04:42.654Z,11.35
2022-12-03T04:07:48.368Z,11.43
2022-12-03T04:11:12.392Z,11.63
2022-12-03T04:14:17.477Z,12.07
2022-12-03T04:17:22.867Z,12.60
2022-12-03T04:20:28.975Z,10.60
2022-12-03T04:23:34.023Z,12.80
2022-12-03T04:26:56.930Z,10.15
2022-12-03T04:30:02.322Z,11.18
2022-12-03T04:33:19.192Z,11.35
2022-12-03T04:36:24.792Z,10.28
2022-12-03T04:39:32.268Z,10.55
2022-12-03T04:42:37.597Z,12.23
2022-12-03T04:45:36.117Z,13.72
2022-12-03T04:48:40.857Z,12.30
2022-12-03T04:51:47.179Z,12.50
2022-12-03T04:54:53.528Z,13.08
2022-12-03T04:57:59.221Z,11.80
2022-12-03T05:01:05.035Z,12.63
2022-12-03T05:04:11.020Z,13.43
2022-12-03T05:07:15.883Z,12.25
2022-12-03T05:10:22.121Z,12.60
2022-12-03T05:13:28.485Z,12.63
2022-12-03T05:16:34.169Z,11.68
2022-12-03T05:19:58.474Z,12.33
2022-12-03T05:23:05.103Z,13.05
2022-12-03T05:26:10.749Z,10.80
2022-12-03T05:29:16.370Z,11.95
2022-12-03T05:32:22.325Z,12.78
2022-12-03T05:35:28.414Z,10.98
2022-12-03T05:38:34.670Z,10.13
2022-12-03T05:41:58.220Z,11.63
2022-12-03T05:45:03.885Z,11.63
2022-12-03T05:48:09.870Z,11.25
2022-12-03T05:51:16.048Z,10.88
2022-12-03T05:54:21.734Z,11.15
2022-12-03T05:57:27.461Z,10.25
2022-12-03T06:00:43.539Z,10.75
2022-12-03T06:03:49.002Z,9.23
2022-12-03T06:06:55.293Z,9.23
2022-12-03T06:10:00.664Z,10.53
2022-12-03T06:13:01.136Z,9.73
2022-12-03T06:16:07.136Z,10.00
2022-12-03T06:19:12.985Z,10.95
2022-12-03T06:22:18.578Z,11.03
2022-12-03T06:25:24.407Z,8.25
2022-12-03T06:28:29.740Z,10.53
2022-12-03T06:31:35.470Z,10.38
2022-12-03T06:34:40.605Z,8.95
2022-12-03T06:37:46.269Z,10.28
2022-12-03T06:40:52.784Z,10.53
2022-12-03T06:43:58.438Z,9.28
2022-12-03T06:47:03.849Z,8.63
2022-12-03T06:50:08.899Z,8.28
2022-12-03T06:53:14.605Z,9.20
2022-12-03T06:56:22.363Z,8.85
2022-12-03T06:59:26.290Z,8.93
2022-12-03T07:02:32.279Z,7.47
2022-12-03T07:05:38.109Z,8.38
2022-12-03T07:08:44.241Z,6.22
2022-12-03T07:11:49.396Z,9.23
2022-12-03T07:14:56.207Z,7.78
2022-12-03T07:18:02.859Z,8.13
2022-12-03T07:21:08.267Z,7.55
2022-12-03T07:24:13.585Z,6.95
2022-12-03T07:27:13.108Z,7.70
2022-12-03T07:30:06.210Z,7.67
2022-12-03T07:33:15.487Z,8.65
2022-12-03T07:36:25.043Z,5.90
2022-12-03T07:39:30.297Z,7.85
2022-12-03T07:42:36.838Z,6.45
2022-12-03T07:45:42.511Z,6.87
2022-12-03T07:48:47.495Z,7.00
2022-12-03T07:51:55.186Z,6.97
2022-12-03T07:55:01.257Z,7.05
2022-12-03T07:58:07.015Z,5.83
2022-12-03T08:01:12.239Z,6.12
2022-12-03T08:04:19.926Z,5.55
2022-12-03T08:07:25.776Z,5.80
2022-12-03T08:10:31.652Z,6.15
2022-12-03T08:13:37.986Z,6.97
2022-12-03T08:16:44.811Z,5.83
2022-12-03T08:19:51.514Z,6.75
2022-12-03T08:22:59.093Z,5.65
2022-12-03T08:26:07.401Z,5.95
2022-12-03T08:29:12.695Z,4.22
2022-12-03T08:32:20.451Z,4.47
2022-12-03T08:35:40.420Z,3.70
2022-12-03T08:38:51.341Z,3.85
2022-12-03T08:42:16.943Z,4.58
2022-12-03T08:49:12.520Z,5.15
2022-12-03T08:52:28.057Z,5.92
2022-12-03T08:55:49.457Z,5.10
2022-12-03T08:59:41.431Z,4.50
2022-12-03T09:05:56.846Z,3.30
2022-12-03T09:09:06.707Z,3.67
2022-12-03T09:12:10.553Z,3.92
2022-12-03T09:15:15.796Z,4.67
2022-12-03T09:18:24.824Z,5.20
2022-12-03T09:21:31.841Z,4.35
2022-12-03T09:24:38.038Z,3.52
2022-12-03T09:27:43.540Z,4.80
2022-12-03T09:30:49.453Z,4.05
2022-12-03T09:33:55.025Z,3.65
2022-12-03T09:37:00.855Z,4.45
2022-12-03T09:40:05.637Z,4.80
2022-12-03T09:43:11.199Z,3.80
2022-12-03T09:46:16.838Z,4.87
2022-12-03T09:49:22.212Z,5.12
2022-12-03T09:52:33.380Z,4.60
2022-12-03T09:55:40.970Z,4.20
2022-12-03T09:58:46.731Z,4.22
2022-12-03T10:01:52.141Z,4.00
2022-12-03T10:04:58.992Z,4.12
2022-12-03T10:08:05.454Z,4.70
2022-12-03T10:11:11.305Z,5.58
2022-12-03T10:14:16.124Z,3.98
2022-12-03T10:17:22.225Z,4.35
2022-12-03T10:20:31.031Z,3.50
2022-12-03T10:23:40.606Z,4.17
2022-12-03T10:30:34.029Z,4.15
2022-12-03T10:36:48.641Z,3.45
2022-12-03T10:40:16.123Z,3.37
2022-12-03T10:43:40.415Z,3.10
2022-12-03T10:46:46.517Z,3.17
2022-12-03T10:49:52.637Z,3.33
2022-12-03T10:52:57.646Z,3.83
2022-12-03T10:56:06.620Z,3.40
2022-12-03T10:59:12.734Z,3.47
2022-12-03T11:02:19.703Z,3.58
2022-12-03T11:05:33.090Z,3.08
2022-12-03T11:08:41.803Z,4.08
2022-12-03T11:11:53.549Z,3.72
2022-12-03T11:15:14.890Z,2.72
2022-12-03T11:18:22.825Z,3.55
2022-12-03T11:25:45.091Z,3.47
2022-12-03T11:28:51.840Z,3.50
2022-12-03T11:32:01.247Z,3.25
2022-12-03T11:35:07.111Z,3.58
2022-12-03T11:38:27.829Z,3.67
2022-12-03T11:41:49.387Z,3.58
2022-12-03T11:48:30.882Z,3.10
2022-12-03T11:51:38.009Z,3.52
2022-12-03T11:55:07.321Z,3.35
2022-12-03T11:58:41.260Z,4.15
2022-12-03T12:01:52.093Z,3.52
2022-12-03T12:04:57.882Z,3.30
2022-12-03T12:08:03.302Z,3.95
2022-12-03T12:11:09.378Z,3.10
2022-12-03T12:14:20.964Z,2.60
2022-12-03T12:17:45.092Z,3.58
2022-12-03T12:20:52.199Z,3.35
2022-12-03T12:23:57.642Z,3.62
2022-12-03T12:31:28.267Z,5.47
2022-12-03T12:34:35.924Z,6.35
2022-12-03T12:38:00.222Z,6.00
2022-12-03T12:41:11.777Z,6.97
2022-12-03T12:44:17.230Z,6.37
2022-12-03T12:47:24.954Z,6.08
2022-12-03T12:50:32.930Z,6.90
2022-12-03T12:53:50.937Z,6.92
2022-12-03T12:57:02.096Z,7.15
2022-12-03T13:00:07.783Z,7.60
2022-12-03T13:03:17.704Z,7.55
2022-12-03T13:06:28.465Z,7.45
2022-12-03T13:09:40.354Z,7.08
2022-12-03T13:12:45.793Z,8.95
2022-12-03T13:16:11.493Z,7.20
2022-12-03T13:19:27.885Z,7.25
2022-12-03T13:22:48.731Z,8.53
2022-12-03T13:26:12.954Z,8.03
2022-12-03T13:29:21.691Z,7.30
2022-12-03T13:32:34.289Z,8.03
2022-12-03T13:36:05.465Z,8.48
2022-12-03T13:39:11.769Z,8.35
2022-12-03T13:42:52.830Z,7.42
2022-12-03T13:46:03.058Z,8.40
2022-12-03T13:49:08.487Z,8.08
2022-12-03T13:52:14.746Z,8.98
2022-12-03T13:55:21.356Z,8.43
2022-12-03T13:58:26.335Z,8.15
2022-12-03T14:01:32.521Z,9.10
2022-12-03T14:05:00.725Z,8.78
2022-12-03T14:08:08.128Z,8.93
2022-12-03T14:11:13.798Z,8.75
2022-12-03T14:14:19.155Z,8.33
2022-12-03T14:17:37.878Z,8.53
2022-12-03T14:21:05.163Z,8.73
2022-12-03T14:24:10.331Z,9.40
2022-12-03T14:27:18.166Z,9.90
2022-12-03T14:30:24.390Z,8.38
2022-12-03T14:33:35.061Z,9.05
2022-12-03T14:36:41.257Z,9.08
2022-12-03T14:39:56.729Z,7.30
2022-12-03T14:43:08.009Z,9.35
2022-12-03T14:46:31.912Z,9.48
2022-12-03T14:49:36.636Z,9.38
2022-12-03T14:52:51.421Z,8.73
2022-12-03T14:56:06.899Z,8.98
2022-12-03T14:59:13.970Z,9.15
2022-12-03T15:02:39.631Z,8.68
2022-12-03T15:06:01.475Z,6.80
2022-12-03T15:09:07.359Z,8.90
2022-12-03T15:12:19.040Z,8.43
2022-12-03T15:15:26.907Z,9.55
2022-12-03T15:18:37.978Z,9.85
2022-12-03T15:22:01.110Z,8.48
2022-12-03T15:25:08.989Z,7.35
2022-12-03T15:28:15.892Z,6.45
2022-12-03T15:31:21.862Z,9.40
2022-12-03T15:34:51.956Z,9.13
2022-12-03T15:41:31.193Z,9.30
2022-12-03T15:44:38.063Z,10.45
2022-12-03T15:47:43.123Z,8.83
2022-12-03T15:50:48.473Z,8.88
2022-12-03T15:53:55.704Z,7.70
2022-12-03T16:00:31.898Z,8.43
2022-12-03T16:04:05.294Z,8.83
2022-12-03T16:07:12.186Z,9.18
2022-12-03T16:10:18.989Z,8.45
2022-12-03T16:13:46.971Z,8.05
2022-12-03T16:20:47.775Z,8.90
2022-12-03T16:24:04.545Z,8.80
2022-12-03T16:27:19.563Z,7.83
2022-12-03T16:33:59.508Z,7.75
2022-12-03T16:37:11.436Z,9.70
2022-12-03T16:40:33.619Z,9.53
2022-12-03T16:43:48.399Z,8.73
2022-12-03T16:51:07.439Z,8.95
2022-12-03T16:54:13.626Z,9.28
2022-12-03T16:57:20.724Z,8.78
2022-12-03T17:00:28.156Z,9.55
2022-12-03T17:03:34.243Z,8.20
2022-12-03T17:06:40.142Z,9.83
2022-12-03T17:09:47.834Z,8.98
2022-12-03T17:13:09.257Z,9.65
2022-12-03T17:16:01.984Z,9.95
2022-12-03T17:19:08.135Z,9.60
2022-12-03T17:22:14.299Z,9.33
2022-12-03T17:25:20.263Z,10.18
2022-12-03T17:28:24.786Z,9.93
2022-12-03T17:31:24.346Z,9.60
2022-12-03T17:34:29.706Z,8.20
2022-12-03T17:37:35.486Z,9.75
2022-12-03T17:40:41.657Z,9.98
2022-12-03T17:43:47.648Z,10.90
2022-12-03T17:46:53.128Z,10.10
2022-12-03T17:49:52.892Z,11.33
2022-12-03T17:52:45.462Z,9.45
2022-12-03T17:55:53.652Z,10.88
2022-12-03T17:58:52.331Z,10.03
2022-12-03T18:01:59.928Z,10.85
2022-12-03T18:05:05.752Z,9.50
2022-12-03T18:08:12.175Z,10.65
2022-12-03T18:11:16.919Z,10.30
2022-12-03T18:14:22.954Z,10.70
2022-12-03T18:17:28.056Z,12.28
2022-12-03T18:20:33.114Z,12.05
2022-12-03T18:23:38.224Z,11.70
2022-12-03T18:26:44.120Z,12.70
2022-12-03T18:29:49.812Z,12.15
2022-12-03T18:32:56.122Z,11.55
2022-12-03T18:36:01.078Z,13.28
2022-12-03T18:39:08.178Z,13.62
2022-12-03T18:42:13.595Z,10.85
2022-12-03T18:45:21.631Z,8.88
2022-12-03T18:48:30.099Z,10.28
2022-12-03T18:51:37.566Z,10.28
2022-12-03T18:54:43.357Z,11.10
2022-12-03T18:57:48.304Z,12.03
2022-12-03T19:00:53.311Z,11.05
2022-12-03T19:03:58.583Z,11.83
2022-12-03T19:07:04.316Z,12.80
2022-12-03T19:10:09.950Z,11.78
2022-12-03T19:13:16.677Z,11.40
2022-12-03T19:16:24.359Z,10.53
2022-12-03T19:19:32.930Z,11.10
2022-12-03T19:22:38.211Z,10.85
2022-12-03T19:25:43.904Z,7.62
2022-12-03T19:28:50.507Z,12.73
2022-12-03T19:31:56.826Z,11.78
2022-12-03T19:35:03.715Z,9.30
2022-12-03T19:38:10.104Z,11.18
2022-12-03T19:41:21.142Z,9.85
2022-12-03T19:44:28.934Z,10.38
2022-12-03T19:47:33.709Z,7.45
2022-12-03T19:50:39.304Z,8.93
2022-12-03T19:53:46.471Z,11.35
2022-12-03T19:56:53.513Z,8.73
2022-12-03T19:59:52.888Z,9.40
2022-12-03T20:02:59.600Z,11.10
2022-12-03T20:06:05.464Z,8.28
2022-12-03T20:09:17.687Z,11.25
2022-12-03T20:12:23.176Z,10.32
2022-12-03T20:15:28.919Z,10.38
2022-12-03T20:18:34.558Z,10.03
2022-12-03T20:21:40.311Z,9.98
2022-12-03T20:24:45.766Z,11.05
2022-12-03T20:27:50.869Z,9.43
2022-12-03T20:30:55.636Z,10.48
2022-12-03T20:34:04.552Z,9.95
2022-12-03T20:37:10.124Z,10.58
2022-12-03T20:40:16.140Z,11.03
2022-12-03T20:43:22.172Z,8.65
2022-12-03T20:46:38.214Z,9.23
2022-12-03T20:49:45.917Z,6.05
2022-12-03T20:53:16.319Z,9.80
2022-12-03T20:55:59.023Z,10.10
2022-12-03T20:59:04.762Z,9.15
2022-12-03T21:02:11.791Z,10.20
2022-12-03T21:05:17.031Z,9.35
2022-12-03T21:08:27.913Z,8.58
2022-12-03T21:11:28.567Z,9.50
2022-12-03T21:14:34.480Z,13.22
2022-12-03T21:17:39.957Z,8.53
2022-12-03T21:20:45.996Z,7.47
2022-12-03T21:23:50.848Z,8.85
2022-12-03T21:26:57.237Z,8.88
2022-12-03T21:30:02.830Z,8.33
2022-12-03T21:33:08.559Z,8.88
2022-12-03T21:36:14.728Z,9.78
2022-12-03T21:39:20.466Z,8.98
2022-12-03T21:42:35.918Z,8.63
2022-12-03T21:45:33.293Z,9.55
2022-12-03T21:48:39.040Z,8.15
2022-12-03T21:51:45.449Z,9.33
2022-12-03T21:54:51.644Z,9.50
2022-12-03T21:57:56.881Z,8.88
2022-12-03T22:01:03.320Z,8.10
2022-12-03T22:04:03.189Z,8.63
2022-12-03T22:10:15.623Z,9.65
2022-12-03T22:13:22.217Z,9.48
2022-12-03T22:16:32.321Z,7.67
2022-12-03T22:22:43.186Z,8.53
2022-12-03T22:25:48.729Z,8.15
